Terminal Aerodrome Forecast
Issued by NWS

Home | Current Version | Previous Version | Text Only | Print | Product List | Glossary On
Versions: 1 2 3 4 5 6 7 8 9 10 11 12 13 14 15 16 17 18 19 20 21
000
FTUS44 KBMX 262335
TAFANB
TAF
KANB 262335Z 2700/2724 24008KT P6SM VCSH SCT040 BKN050
     FM270300 27004KT P6SM OVC025
     FM270700 32003KT P6SM OVC010
     FM271700 31007KT P6SM SCT020=

USA.gov is the U.S. government's official web portal to all federal, state and local government web resources and services.